createdAt,value
2022-08-05T00:00:17.229Z,96619.75
2022-08-05T00:02:51.786Z,96620.47
2022-08-05T00:06:03.154Z,96623.59
2022-08-05T00:08:32.432Z,96623.31
2022-08-05T00:10:57.180Z,96616.50
2022-08-05T00:13:39.538Z,96616.81
2022-08-05T00:16:09.585Z,96624.47
2022-08-05T00:18:39.592Z,96616.34
2022-08-05T00:21:08.235Z,96615.94
2022-08-05T00:23:45.881Z,96608.75
2022-08-05T00:26:20.580Z,96614.63
2022-08-05T00:28:47.206Z,96612.53
2022-08-05T00:31:16.299Z,96616.75
2022-08-05T00:34:55.990Z,96617.16
2022-08-05T00:37:11.495Z,96615.09
2022-08-05T00:39:16.541Z,96616.13
2022-08-05T00:41:55.010Z,96614.66
2022-08-05T00:44:23.170Z,96611.38
2022-08-05T00:46:54.315Z,96618.56
2022-08-05T00:49:32.498Z,96604.66
2022-08-05T00:52:00.154Z,96609.81
2022-08-05T00:54:28.103Z,96603.72
2022-08-05T00:56:57.047Z,96597.56
2022-08-05T00:59:23.945Z,96599.44
2022-08-05T01:01:51.176Z,96591.78
2022-08-05T01:04:20.378Z,96595.09
2022-08-05T01:06:53.797Z,96602.13
2022-08-05T01:09:22.302Z,96592.38
2022-08-05T01:11:52.103Z,96587.50
2022-08-05T01:14:33.244Z,96600.31
2022-08-05T01:17:05.525Z,96600.75
2022-08-05T01:20:01.338Z,96593.78
2022-08-05T01:22:34.549Z,96596.38
2022-08-05T01:25:40.726Z,96598.31
2022-08-05T01:28:15.790Z,96596.41
2022-08-05T01:30:55.278Z,96591.88
2022-08-05T01:33:26.236Z,96591.53
2022-08-05T01:35:57.451Z,96584.59
2022-08-05T01:38:29.280Z,96588.09
2022-08-05T01:41:01.939Z,96581.28
2022-08-05T01:43:30.391Z,96575.13
2022-08-05T01:45:58.436Z,96584.91
2022-08-05T01:48:36.316Z,96578.94
2022-08-05T01:51:12.275Z,96580.06
2022-08-05T01:53:58.048Z,96577.94
2022-08-05T01:58:09.315Z,96573.44
2022-08-05T01:59:21.877Z,96572.63
2022-08-05T02:01:52.682Z,96574.00
2022-08-05T02:04:24.239Z,96578.94
2022-08-05T02:06:52.807Z,96576.19
2022-08-05T02:09:20.659Z,96577.00
2022-08-05T02:12:19.677Z,96580.72
2022-08-05T02:15:12.193Z,96574.25
2022-08-05T02:18:30.790Z,96584.44
2022-08-05T02:20:49.640Z,96580.38
2022-08-05T02:23:20.158Z,96582.81
2022-08-05T02:25:50.569Z,96579.66
2022-08-05T02:28:29.356Z,96582.25
2022-08-05T02:31:01.043Z,96578.38
2022-08-05T02:33:36.183Z,96589.09
2022-08-05T02:36:09.432Z,96588.13
2022-08-05T02:38:37.843Z,96588.28
2022-08-05T02:41:16.984Z,96584.31
2022-08-05T02:44:06.137Z,96585.69
2022-08-05T02:46:33.444Z,96584.75
2022-08-05T02:49:01.458Z,96580.53
2022-08-05T02:52:03.853Z,96581.44
2022-08-05T02:54:35.580Z,96586.06
2022-08-05T02:57:03.084Z,96581.50
2022-08-05T02:59:47.801Z,96584.56
2022-08-05T03:02:20.556Z,96590.31
2022-08-05T03:04:53.095Z,96581.50
2022-08-05T03:07:40.314Z,96575.69
2022-08-05T03:10:08.864Z,96570.69
2022-08-05T03:12:38.342Z,96573.09
2022-08-05T03:15:07.690Z,96570.00
2022-08-05T03:17:41.426Z,96572.66
2022-08-05T03:20:10.164Z,96571.22
2022-08-05T03:22:37.074Z,96569.31
2022-08-05T03:25:31.653Z,96570.84
2022-08-05T03:27:58.048Z,96566.63
2022-08-05T03:30:33.670Z,96565.66
2022-08-05T03:33:03.009Z,96567.19
2022-08-05T03:35:30.984Z,96564.41
2022-08-05T03:38:02.650Z,96571.84
2022-08-05T03:40:32.120Z,96566.56
2022-08-05T03:43:15.890Z,96570.19
2022-08-05T03:45:57.728Z,96573.34
2022-08-05T03:48:25.613Z,96573.25
2022-08-05T03:52:35.266Z,96581.03
2022-08-05T03:55:53.614Z,96582.00
2022-08-05T03:56:42.186Z,96574.44
2022-08-05T03:59:13.825Z,96575.81
2022-08-05T04:01:49.322Z,96572.50
2022-08-05T04:04:21.099Z,96565.88
2022-08-05T04:06:50.989Z,96559.16
2022-08-05T04:09:26.127Z,96568.72
2022-08-05T04:11:56.816Z,96563.63
2022-08-05T04:14:30.192Z,96555.06
2022-08-05T04:16:58.918Z,96549.38
2022-08-05T04:19:25.706Z,96548.88
2022-08-05T04:22:08.433Z,96549.00
2022-08-05T04:24:44.700Z,96550.38
2022-08-05T04:27:19.274Z,96556.13
2022-08-05T04:30:00.010Z,96556.59
2022-08-05T04:32:30.823Z,96556.84
2022-08-05T04:35:00.112Z,96557.72
2022-08-05T04:38:02.260Z,96567.47
2022-08-05T04:40:13.369Z,96561.31
2022-08-05T04:42:46.399Z,96559.63
2022-08-05T04:45:14.134Z,96556.59
2022-08-05T04:47:49.676Z,96556.44
2022-08-05T04:50:37.302Z,96553.69
2022-08-05T04:53:04.372Z,96556.88
2022-08-05T04:56:14.587Z,96561.97
2022-08-05T04:58:21.517Z,96562.69
2022-08-05T05:00:50.689Z,96564.38
2022-08-05T05:03:20.339Z,96563.41
2022-08-05T05:06:39.760Z,96569.72
2022-08-05T05:08:33.714Z,96596.78
2022-08-05T05:11:00.302Z,96600.50
2022-08-05T05:13:27.017Z,96602.00
2022-08-05T05:16:02.121Z,96601.94
2022-08-05T05:18:33.833Z,96602.44
2022-08-05T05:21:02.097Z,96614.13
2022-08-05T05:23:38.987Z,96616.66
2022-08-05T05:26:16.629Z,96612.19
2022-08-05T05:28:45.001Z,96620.75
2022-08-05T05:31:12.510Z,96623.13
2022-08-05T05:33:58.620Z,96603.78
2022-08-05T05:36:28.325Z,96615.13
2022-08-05T05:38:55.648Z,96624.28
2022-08-05T05:41:22.244Z,96621.28
2022-08-05T05:43:57.598Z,96602.94
2022-08-05T05:46:27.034Z,96638.00
2022-08-05T05:48:53.827Z,96622.38
2022-08-05T05:51:25.547Z,96612.88
2022-08-05T05:53:58.644Z,96614.31
2022-08-05T05:56:33.813Z,96586.69
2022-08-05T05:59:05.506Z,96603.81
2022-08-05T06:01:37.654Z,96597.84
2022-08-05T06:04:14.334Z,96613.91
2022-08-05T06:06:43.020Z,96616.81
2022-08-05T06:09:18.086Z,96600.47
2022-08-05T06:11:59.633Z,96598.50
2022-08-05T06:14:29.238Z,96590.91
2022-08-05T06:16:56.816Z,96587.75
2022-08-05T06:19:26.126Z,96581.91
2022-08-05T06:22:06.445Z,96565.31
2022-08-05T06:24:34.777Z,96564.31
2022-08-05T06:27:02.043Z,96565.28
2022-08-05T06:29:48.964Z,96572.28
2022-08-05T06:32:25.393Z,96565.94
2022-08-05T06:34:57.290Z,96570.97
2022-08-05T06:37:56.390Z,96570.38
2022-08-05T06:40:18.468Z,96576.88
2022-08-05T06:42:51.960Z,96583.56
2022-08-05T06:45:20.690Z,96590.34
2022-08-05T06:48:47.377Z,96586.06
2022-08-05T06:50:34.796Z,96587.16
2022-08-05T06:53:11.722Z,96599.53
2022-08-05T06:55:48.353Z,96609.63
2022-08-05T06:58:29.186Z,96630.34
2022-08-05T07:01:01.700Z,96622.84
2022-08-05T07:03:32.743Z,96618.63
2022-08-05T07:06:05.674Z,96629.56
2022-08-05T07:08:41.884Z,96639.41
2022-08-05T07:11:15.497Z,96644.47
2022-08-05T07:14:01.496Z,96637.16
2022-08-05T07:18:08.176Z,96674.88
2022-08-05T07:22:29.031Z,96673.69
2022-08-05T07:25:21.956Z,96660.38
2022-08-05T07:27:57.543Z,96655.53
2022-08-05T07:30:32.598Z,96661.47
2022-08-05T07:33:09.022Z,96671.84
2022-08-05T07:36:03.792Z,96680.75
2022-08-05T07:38:26.430Z,96668.28
2022-08-05T07:42:07.743Z,96676.78
2022-08-05T07:43:53.014Z,96673.41
2022-08-05T07:46:25.121Z,96684.91
2022-08-05T07:49:02.328Z,96682.50
2022-08-05T07:51:37.609Z,96688.88
2022-08-05T07:54:15.166Z,96685.72
2022-08-05T07:57:01.345Z,96679.03
2022-08-05T07:59:38.402Z,96691.09
2022-08-05T08:02:16.134Z,96694.72
2022-08-05T08:04:47.402Z,96689.97
2022-08-05T08:07:15.050Z,96701.66
2022-08-05T08:09:42.382Z,96698.88
2022-08-05T08:12:27.564Z,96706.47
2022-08-05T08:14:56.668Z,96706.13
2022-08-05T08:17:28.893Z,96710.88
2022-08-05T08:20:22.067Z,96713.84
2022-08-05T08:22:43.561Z,96717.41
2022-08-05T08:25:16.479Z,96733.75
2022-08-05T08:27:47.948Z,96717.16
2022-08-05T08:30:32.416Z,96722.59
2022-08-05T08:33:04.359Z,96727.41
2022-08-05T08:35:40.944Z,96718.44
2022-08-05T08:38:11.600Z,96713.91
2022-08-05T08:40:50.456Z,96723.94
2022-08-05T08:45:04.479Z,96727.34
2022-08-05T08:46:09.973Z,96727.16
2022-08-05T08:49:07.511Z,96723.56
2022-08-05T08:52:05.817Z,96720.50
2022-08-05T08:54:21.331Z,96724.94
2022-08-05T08:56:54.334Z,96716.88
2022-08-05T08:59:27.871Z,96721.06
2022-08-05T09:02:05.975Z,96725.31
2022-08-05T09:04:58.620Z,96710.09
2022-08-05T09:07:29.164Z,96705.72
2022-08-05T09:10:06.522Z,96718.06
2022-08-05T09:12:34.607Z,96727.34
2022-08-05T09:15:06.382Z,96716.91
2022-08-05T09:17:42.283Z,96732.78
2022-08-05T09:20:12.921Z,96752.59
2022-08-05T09:23:18.451Z,96757.56
2022-08-05T09:26:01.957Z,96763.81
2022-08-05T09:28:33.210Z,96762.97
2022-08-05T09:31:22.988Z,96766.88
2022-08-05T09:33:56.237Z,96769.75
2022-08-05T09:36:27.943Z,96767.38
2022-08-05T09:39:03.813Z,96769.75
2022-08-05T09:42:07.734Z,96768.44
2022-08-05T09:44:39.421Z,96777.00
2022-08-05T09:47:21.578Z,96767.78
2022-08-05T09:50:01.315Z,96774.75
2022-08-05T09:52:36.709Z,96763.31
2022-08-05T09:55:56.349Z,96759.44
2022-08-05T09:58:13.321Z,96746.94
2022-08-05T10:00:40.196Z,96740.69
2022-08-05T10:03:11.527Z,96734.75
2022-08-05T10:05:38.909Z,96735.56
2022-08-05T10:08:36.586Z,96728.97
2022-08-05T10:10:54.656Z,96729.38
2022-08-05T10:13:45.627Z,96729.38
2022-08-05T10:16:41.876Z,96727.81
2022-08-05T10:19:23.870Z,96733.91
2022-08-05T10:21:59.144Z,96726.44
2022-08-05T10:24:27.431Z,96724.97
2022-08-05T10:26:56.754Z,96723.72
2022-08-05T10:30:06.480Z,96716.56
2022-08-05T10:33:01.286Z,96711.81
2022-08-05T10:35:07.006Z,96713.78
2022-08-05T10:37:40.474Z,96714.53
2022-08-05T10:40:29.796Z,96712.50
2022-08-05T10:43:07.790Z,96711.03
2022-08-05T10:45:40.009Z,96717.88
2022-08-05T10:48:52.519Z,96724.47
2022-08-05T10:51:28.827Z,96714.78
2022-08-05T10:54:01.071Z,96714.53
2022-08-05T10:56:45.003Z,96712.06
2022-08-05T11:00:03.155Z,96726.72
2022-08-05T11:02:14.546Z,96728.47
2022-08-05T11:04:57.047Z,96724.75
2022-08-05T11:07:32.911Z,96720.72
2022-08-05T11:10:27.227Z,96715.19
2022-08-05T11:12:57.312Z,96731.41
2022-08-05T11:15:59.099Z,96730.06
2022-08-05T11:18:29.689Z,96729.97
2022-08-05T11:20:57.564Z,96731.56
2022-08-05T11:24:03.149Z,96741.91
2022-08-05T11:26:32.199Z,96750.84
2022-08-05T11:29:06.573Z,96752.97
2022-08-05T11:31:56.648Z,96755.97
2022-08-05T11:34:51.231Z,96752.78
2022-08-05T11:38:36.405Z,96753.53
2022-08-05T11:41:01.282Z,96753.81
2022-08-05T11:44:08.496Z,96750.94
2022-08-05T11:47:09.344Z,96739.72
2022-08-05T11:49:27.910Z,96743.19
2022-08-05T11:51:54.857Z,96735.69
2022-08-05T11:54:33.131Z,96740.72
2022-08-05T11:57:08.470Z,96741.72
2022-08-05T11:59:49.851Z,96732.69
2022-08-05T12:02:23.926Z,96733.41
2022-08-05T12:04:59.178Z,96733.72
2022-08-05T12:08:03.398Z,96726.59
2022-08-05T12:10:19.655Z,96742.78
2022-08-05T12:12:58.359Z,96726.75
2022-08-05T12:15:35.682Z,96727.16
2022-08-05T12:18:11.937Z,96724.50
2022-08-05T12:20:39.312Z,96722.94
2022-08-05T12:23:10.413Z,96722.41
2022-08-05T12:25:56.821Z,96716.06
2022-08-05T12:28:37.041Z,96713.63
2022-08-05T12:31:05.560Z,96687.16
2022-08-05T12:33:36.955Z,96700.84
2022-08-05T12:36:09.306Z,96704.25
2022-08-05T12:38:41.200Z,96705.00
2022-08-05T12:41:14.026Z,96703.63
2022-08-05T12:44:03.101Z,96708.84
2022-08-05T12:46:31.845Z,96708.63
2022-08-05T12:49:13.672Z,96701.91
2022-08-05T12:52:12.955Z,96703.25
2022-08-05T12:54:51.559Z,96701.19
2022-08-05T12:57:19.385Z,96692.47
2022-08-05T13:01:57.235Z,96694.75
2022-08-05T13:02:40.229Z,96689.50
2022-08-05T13:05:08.425Z,96687.19
2022-08-05T13:07:57.826Z,96678.38
2022-08-05T13:10:26.988Z,96674.44
2022-08-05T13:12:58.082Z,96680.59
2022-08-05T13:15:41.294Z,96678.44
2022-08-05T13:18:09.113Z,96666.66
2022-08-05T13:20:40.445Z,96654.94
2022-08-05T13:23:07.621Z,96667.44
2022-08-05T13:25:52.701Z,96667.91
2022-08-05T13:28:22.290Z,96658.13
2022-08-05T13:30:48.955Z,96656.53
2022-08-05T13:34:21.665Z,96650.94
2022-08-05T13:36:06.465Z,96647.31
2022-08-05T13:38:38.536Z,96647.31
2022-08-05T13:41:12.944Z,96644.47
2022-08-05T13:43:45.924Z,96647.88
2022-08-05T13:46:43.825Z,96647.88
2022-08-05T13:49:11.780Z,96645.41
2022-08-05T13:51:41.551Z,96648.78
2022-08-05T13:54:13.641Z,96639.13
2022-08-05T13:56:45.075Z,96644.25
2022-08-05T13:59:21.348Z,96644.06
2022-08-05T14:01:58.189Z,96649.16
2022-08-05T14:04:54.750Z,96637.56
2022-08-05T14:07:25.398Z,96636.72
2022-08-05T14:10:19.116Z,96642.19
2022-08-05T14:12:55.982Z,96638.31
2022-08-05T14:16:04.817Z,96637.19
2022-08-05T14:18:17.818Z,96622.13
2022-08-05T14:20:49.011Z,96637.75
2022-08-05T14:23:24.033Z,96618.97
2022-08-05T14:25:54.604Z,96628.88
2022-08-05T14:28:26.999Z,96624.56
2022-08-05T14:30:55.106Z,96622.53
2022-08-05T14:33:22.567Z,96613.41
2022-08-05T14:35:51.688Z,96608.38
2022-08-05T14:38:32.146Z,96613.31
2022-08-05T14:41:06.171Z,96611.94
2022-08-05T14:43:59.539Z,96623.78
2022-08-05T14:46:29.596Z,96619.00
2022-08-05T14:48:59.535Z,96623.53
2022-08-05T14:51:31.177Z,96621.50
2022-08-05T14:54:26.435Z,96617.06
2022-08-05T14:56:46.864Z,96614.84
2022-08-05T14:59:14.366Z,96617.84
2022-08-05T15:01:48.373Z,96619.31
2022-08-05T15:04:20.703Z,96619.16
2022-08-05T15:06:52.411Z,96609.31
2022-08-05T15:09:52.876Z,96612.31
2022-08-05T15:12:07.046Z,96608.25
2022-08-05T15:14:48.136Z,96605.19
2022-08-05T15:17:45.656Z,96616.19
2022-08-05T15:20:04.724Z,96613.91
2022-08-05T15:22:31.403Z,96615.00
2022-08-05T15:24:59.278Z,96610.97
2022-08-05T15:27:26.536Z,96614.59
2022-08-05T15:29:59.266Z,96607.03
2022-08-05T15:32:28.570Z,96606.44
2022-08-05T15:34:57.366Z,96604.16
2022-08-05T15:38:34.387Z,96606.09
2022-08-05T15:41:00.017Z,96606.69
2022-08-05T15:43:09.181Z,96605.56
2022-08-05T15:45:45.703Z,96612.09
2022-08-05T15:48:14.235Z,96617.03
2022-08-05T15:50:43.889Z,96613.44
2022-08-05T15:53:13.218Z,96620.25
2022-08-05T15:56:04.275Z,96620.03
2022-08-05T15:58:29.213Z,96614.69
2022-08-05T16:01:04.340Z,96617.69
2022-08-05T16:03:43.101Z,96614.16
2022-08-05T16:06:11.526Z,96618.97
2022-08-05T16:08:38.815Z,96629.13
2022-08-05T16:11:07.266Z,96620.22
2022-08-05T16:13:35.169Z,96630.53
2022-08-05T16:16:03.892Z,96621.66
2022-08-05T16:18:32.960Z,96625.75
2022-08-05T16:21:04.233Z,96627.00
2022-08-05T16:23:53.076Z,96635.41
2022-08-05T16:26:18.060Z,96636.78
2022-08-05T16:28:44.663Z,96638.78
2022-08-05T16:31:11.451Z,96643.19
2022-08-05T16:33:41.681Z,96640.19
2022-08-05T16:36:09.330Z,96641.13
2022-08-05T16:38:35.958Z,96645.78
2022-08-05T16:41:21.616Z,96647.75
2022-08-05T16:43:56.458Z,96636.22
2022-08-05T16:46:24.683Z,96635.06
2022-08-05T16:48:51.858Z,96633.06
2022-08-05T16:51:19.511Z,96637.00
2022-08-05T16:54:03.913Z,96639.16
2022-08-05T16:56:35.119Z,96645.06
2022-08-05T16:59:08.299Z,96647.84
2022-08-05T17:01:54.024Z,96633.81
2022-08-05T17:04:26.425Z,96647.13
2022-08-05T17:06:55.450Z,96651.91
2022-08-05T17:09:22.892Z,96662.81
2022-08-05T17:11:51.557Z,96662.72
2022-08-05T17:14:22.382Z,96659.00
2022-08-05T17:17:04.369Z,96668.03
2022-08-05T17:19:31.267Z,96658.78
2022-08-05T17:21:58.568Z,96669.84
2022-08-05T17:24:35.136Z,96675.44
2022-08-05T17:27:07.064Z,96681.97
2022-08-05T17:29:41.037Z,96687.91
2022-08-05T17:32:17.396Z,96693.97
2022-08-05T17:34:47.913Z,96693.66
2022-08-05T17:37:39.698Z,96693.41
2022-08-05T17:40:02.209Z,96688.94
2022-08-05T17:42:32.245Z,96704.69
2022-08-05T17:45:17.668Z,96703.09
2022-08-05T17:47:52.929Z,96712.22
2022-08-05T17:50:28.178Z,96718.03
2022-08-05T17:52:59.184Z,96710.34
2022-08-05T17:55:34.363Z,96722.75
2022-08-05T17:58:12.272Z,96720.38
2022-08-05T18:00:47.567Z,96720.38
2022-08-05T18:06:12.299Z,96725.22
2022-08-05T18:08:45.804Z,96735.28
2022-08-05T18:11:23.752Z,96750.91
2022-08-05T18:13:53.324Z,96754.19
2022-08-05T18:16:20.345Z,96755.78
2022-08-05T18:18:47.970Z,96744.81
2022-08-05T18:21:21.145Z,96762.88
2022-08-05T18:23:50.106Z,96752.22
2022-08-05T18:26:20.569Z,96767.97
2022-08-05T18:28:47.174Z,96767.06
2022-08-05T18:31:15.849Z,96766.66
2022-08-05T18:33:47.184Z,96767.47
2022-08-05T18:36:16.812Z,96769.88
2022-08-05T18:38:46.155Z,96780.31
2022-08-05T18:41:55.218Z,96787.97
2022-08-05T18:44:05.757Z,96795.81
2022-08-05T18:46:33.371Z,96791.34
2022-08-05T18:49:20.622Z,96789.63
2022-08-05T18:52:08.864Z,96800.28
2022-08-05T18:54:41.451Z,96793.81
2022-08-05T18:57:15.408Z,96800.75
2022-08-05T19:00:01.887Z,96800.25
2022-08-05T19:02:29.657Z,96802.88
2022-08-05T19:05:02.477Z,96809.78
2022-08-05T19:07:47.964Z,96806.03
2022-08-05T19:10:28.134Z,96814.06
2022-08-05T19:12:56.633Z,96814.56
2022-08-05T19:15:56.825Z,96825.00
2022-08-05T19:18:20.921Z,96822.03
2022-08-05T19:20:51.579Z,96821.06
2022-08-05T19:24:06.252Z,96820.09
2022-08-05T19:26:09.239Z,96831.88
2022-08-05T19:28:42.099Z,96831.75
2022-08-05T19:31:13.595Z,96841.28
2022-08-05T19:33:48.435Z,96838.53
2022-08-05T19:36:29.417Z,96841.16
2022-08-05T19:38:58.771Z,96838.03
2022-08-05T19:41:58.093Z,96844.34
2022-08-05T19:44:14.261Z,96849.53
2022-08-05T19:46:41.474Z,96853.31
2022-08-05T19:49:16.384Z,96848.47
2022-08-05T19:52:08.239Z,96855.97
2022-08-05T19:54:32.894Z,96853.28
2022-08-05T19:57:02.668Z,96861.31
2022-08-05T19:59:53.914Z,96870.59
2022-08-05T20:02:23.277Z,96870.31
2022-08-05T20:04:50.001Z,96875.56
2022-08-05T20:07:47.981Z,96881.81
2022-08-05T20:10:13.533Z,96868.06
2022-08-05T20:12:47.777Z,96869.44
2022-08-05T20:15:48.972Z,96882.47
2022-08-05T20:18:09.756Z,96881.03
2022-08-05T20:20:50.981Z,96887.47
2022-08-05T20:23:17.750Z,96899.91
2022-08-05T20:25:47.511Z,96907.72
2022-08-05T20:28:15.893Z,96909.09
2022-08-05T20:30:42.696Z,96930.06
2022-08-05T20:33:09.690Z,96924.19
2022-08-05T20:35:40.345Z,96924.03
2022-08-05T20:38:14.390Z,96914.88
2022-08-05T20:40:55.535Z,96916.25
2022-08-05T20:43:57.678Z,96927.00
2022-08-05T20:46:12.428Z,96937.59
2022-08-05T20:48:45.346Z,96937.06
2022-08-05T20:51:17.622Z,96932.25
2022-08-05T20:53:44.342Z,96943.56
2022-08-05T20:56:28.678Z,96945.72
2022-08-05T20:59:04.025Z,96961.28
2022-08-05T21:01:41.253Z,96965.50
2022-08-05T21:04:10.664Z,96972.31
2022-08-05T21:06:45.746Z,96975.28
2022-08-05T21:09:14.922Z,96975.00
2022-08-05T21:12:06.970Z,96977.91
2022-08-05T21:14:34.700Z,96992.63
2022-08-05T21:17:01.669Z,96996.91
2022-08-05T21:19:29.920Z,96999.78
2022-08-05T21:22:14.526Z,97009.53
2022-08-05T21:24:41.185Z,97014.03
2022-08-05T21:27:09.290Z,97015.34
2022-08-05T21:29:40.689Z,97011.44
2022-08-05T21:32:07.699Z,97007.81
2022-08-05T21:34:35.515Z,97007.78
2022-08-05T21:37:02.574Z,97019.38
2022-08-05T21:39:29.544Z,97014.28
2022-08-05T21:42:01.711Z,97029.28
2022-08-05T21:44:30.288Z,97033.25
2022-08-05T21:46:58.109Z,97053.25
2022-08-05T21:49:58.523Z,97046.34
2022-08-05T21:52:21.814Z,97068.78
2022-08-05T21:54:55.334Z,97066.63
2022-08-05T21:57:31.545Z,97069.06
2022-08-05T22:00:06.387Z,97066.94
2022-08-05T22:02:34.617Z,97077.13
2022-08-05T22:05:01.315Z,97084.91
2022-08-05T22:07:39.977Z,97098.66
2022-08-05T22:10:17.677Z,97114.66
2022-08-05T22:12:53.435Z,97131.84
2022-08-05T22:16:00.341Z,97145.81
2022-08-05T22:18:08.636Z,97152.16
2022-08-05T22:20:38.989Z,97145.84
2022-08-05T22:24:01.025Z,97164.34
2022-08-05T22:26:30.591Z,97144.97
2022-08-05T22:28:57.282Z,97140.00
2022-08-05T22:31:24.999Z,97128.75
2022-08-05T22:34:01.461Z,97131.06
2022-08-05T22:36:29.163Z,97146.28
2022-08-05T22:38:56.763Z,97154.16
2022-08-05T22:41:26.338Z,97162.94
2022-08-05T22:44:12.108Z,97167.53
2022-08-05T22:46:40.652Z,97158.34
2022-08-05T22:49:23.110Z,97172.81
2022-08-05T22:52:04.700Z,97192.00
2022-08-05T22:54:35.057Z,97186.16
2022-08-05T22:57:02.864Z,97186.63
2022-08-05T22:59:44.273Z,97188.06
2022-08-05T23:02:16.902Z,97168.31
2022-08-05T23:04:51.648Z,97167.63
2022-08-05T23:07:22.127Z,97217.63
2022-08-05T23:09:57.759Z,97233.50
2022-08-05T23:12:32.875Z,97251.22
2022-08-05T23:15:03.201Z,97252.47
2022-08-05T23:17:35.037Z,97264.91
2022-08-05T23:20:17.536Z,97296.50
2022-08-05T23:22:47.305Z,97281.78
2022-08-05T23:25:16.994Z,97287.31
2022-08-05T23:28:02.205Z,97296.19
2022-08-05T23:30:31.185Z,97310.38
2022-08-05T23:32:58.854Z,97311.75
2022-08-05T23:35:28.646Z,97294.06
2022-08-05T23:38:01.385Z,97301.81
2022-08-05T23:40:28.056Z,97294.66
2022-08-05T23:42:54.805Z,97306.09
2022-08-05T23:45:23.610Z,97312.06
2022-08-05T23:47:53.653Z,97294.00
2022-08-05T23:50:26.156Z,97271.88
2022-08-05T23:52:55.390Z,97269.34
2022-08-05T23:55:22.539Z,97291.56
2022-08-05T23:57:57.515Z,97279.75
